sensor_id;sensor_type;location;lat;lon;timestamp;pressure;altitude;pressure_sealevel;temperature;humidity
29433;BME280;16405;53.964;13.448;2023-05-16T00:00:19;100466.22;;;10.99;87.35
29433;BME280;16405;53.964;13.448;2023-05-16T00:02:45;100461.94;;;10.97;87.91
29433;BME280;16405;53.964;13.448;2023-05-16T00:05:11;100463.91;;;10.93;88.44
29433;BME280;16405;53.964;13.448;2023-05-16T00:07:42;100468.94;;;10.98;87.83
29433;BME280;16405;53.964;13.448;2023-05-16T00:10:09;100456.53;;;11.00;86.95
29433;BME280;16405;53.964;13.448;2023-05-16T00:12:36;100453.91;;;11.00;86.83
29433;BME280;16405;53.964;13.448;2023-05-16T00:15:03;100457.44;;;10.99;86.52
29433;BME280;16405;53.964;13.448;2023-05-16T00:17:34;100459.06;;;11.01;86.36
29433;BME280;16405;53.964;13.448;2023-05-16T00:20:04;100466.13;;;11.01;85.53
29433;BME280;16405;53.964;13.448;2023-05-16T00:22:32;100463.81;;;10.95;85.94
29433;BME280;16405;53.964;13.448;2023-05-16T00:24:58;100465.78;;;10.91;86.73
29433;BME280;16405;53.964;13.448;2023-05-16T00:27:24;100459.63;;;10.91;86.79
29433;BME280;16405;53.964;13.448;2023-05-16T00:29:50;100456.25;;;10.88;86.40
29433;BME280;16405;53.964;13.448;2023-05-16T00:32:17;100463.13;;;10.91;86.22
29433;BME280;16405;53.964;13.448;2023-05-16T00:34:43;100451.19;;;10.84;87.66
29433;BME280;16405;53.964;13.448;2023-05-16T00:37:08;100454.59;;;10.86;87.47
29433;BME280;16405;53.964;13.448;2023-05-16T00:39:34;100460.66;;;10.88;87.02
29433;BME280;16405;53.964;13.448;2023-05-16T00:42:00;100457.94;;;10.90;86.63
29433;BME280;16405;53.964;13.448;2023-05-16T00:44:26;100449.19;;;10.89;85.94
29433;BME280;16405;53.964;13.448;2023-05-16T00:46:53;100456.09;;;10.92;84.92
29433;BME280;16405;53.964;13.448;2023-05-16T00:49:19;100458.53;;;10.95;84.60
29433;BME280;16405;53.964;13.448;2023-05-16T00:51:46;100460.09;;;10.99;84.22
29433;BME280;16405;53.964;13.448;2023-05-16T00:54:12;100463.75;;;10.96;85.16
29433;BME280;16405;53.964;13.448;2023-05-16T00:56:39;100460.19;;;10.97;84.65
29433;BME280;16405;53.964;13.448;2023-05-16T00:59:05;100464.44;;;11.00;84.48
29433;BME280;16405;53.964;13.448;2023-05-16T01:01:32;100466.91;;;11.03;84.10
29433;BME280;16405;53.964;13.448;2023-05-16T01:03:59;100465.09;;;11.03;83.82
29433;BME280;16405;53.964;13.448;2023-05-16T01:06:25;100458.31;;;10.99;84.01
29433;BME280;16405;53.964;13.448;2023-05-16T01:08:51;100460.25;;;10.96;85.02
29433;BME280;16405;53.964;13.448;2023-05-16T01:11:30;100456.41;;;10.85;86.04
29433;BME280;16405;53.964;13.448;2023-05-16T01:26:20;100461.34;;;10.92;84.31
29433;BME280;16405;53.964;13.448;2023-05-16T01:28:49;100463.97;;;10.92;83.99
29433;BME280;16405;53.964;13.448;2023-05-16T01:31:15;100457.94;;;10.90;84.02
29433;BME280;16405;53.964;13.448;2023-05-16T01:33:42;100463.28;;;10.88;83.80
29433;BME280;16405;53.964;13.448;2023-05-16T01:36:32;100458.19;;;10.85;83.81
29433;BME280;16405;53.964;13.448;2023-05-16T01:39:19;100455.69;;;10.82;84.08
29433;BME280;16405;53.964;13.448;2023-05-16T01:44:42;100456.88;;;10.76;84.14
29433;BME280;16405;53.964;13.448;2023-05-16T01:47:12;100463.22;;;10.72;84.33
29433;BME280;16405;53.964;13.448;2023-05-16T01:50:01;100453.63;;;10.71;84.47
29433;BME280;16405;53.964;13.448;2023-05-16T01:52:49;100453.00;;;10.66;84.65
29433;BME280;16405;53.964;13.448;2023-05-16T01:55:44;100457.66;;;10.61;84.92
29433;BME280;16405;53.964;13.448;2023-05-16T01:58:14;100448.22;;;10.57;84.95
29433;BME280;16405;53.964;13.448;2023-05-16T02:00:41;100455.41;;;10.53;84.70
29433;BME280;16405;53.964;13.448;2023-05-16T02:03:07;100460.00;;;10.50;85.31
29433;BME280;16405;53.964;13.448;2023-05-16T02:05:33;100456.72;;;10.44;86.18
29433;BME280;16405;53.964;13.448;2023-05-16T02:07:59;100467.19;;;10.46;86.41
29433;BME280;16405;53.964;13.448;2023-05-16T02:10:26;100466.34;;;10.45;87.01
29433;BME280;16405;53.964;13.448;2023-05-16T02:12:52;100468.09;;;10.45;88.42
29433;BME280;16405;53.964;13.448;2023-05-16T02:15:18;100465.47;;;10.45;89.44
29433;BME280;16405;53.964;13.448;2023-05-16T02:17:44;100471.69;;;10.44;90.67
29433;BME280;16405;53.964;13.448;2023-05-16T02:20:12;100474.25;;;10.45;91.13
29433;BME280;16405;53.964;13.448;2023-05-16T02:22:38;100478.50;;;10.48;90.74
29433;BME280;16405;53.964;13.448;2023-05-16T02:25:05;100489.03;;;10.48;90.93
29433;BME280;16405;53.964;13.448;2023-05-16T02:27:31;100490.72;;;10.49;90.52
29433;BME280;16405;53.964;13.448;2023-05-16T02:29:57;100485.44;;;10.49;90.29
29433;BME280;16405;53.964;13.448;2023-05-16T02:32:24;100489.88;;;10.49;90.04
29433;BME280;16405;53.964;13.448;2023-05-16T02:34:50;100484.78;;;10.45;91.08
29433;BME280;16405;53.964;13.448;2023-05-16T02:37:16;100486.63;;;10.43;91.34
29433;BME280;16405;53.964;13.448;2023-05-16T02:39:42;100490.41;;;10.38;91.02
29433;BME280;16405;53.964;13.448;2023-05-16T02:42:08;100486.16;;;10.35;91.90
29433;BME280;16405;53.964;13.448;2023-05-16T02:44:33;100496.09;;;10.29;92.64
29433;BME280;16405;53.964;13.448;2023-05-16T02:46:59;100491.19;;;10.21;92.29
29433;BME280;16405;53.964;13.448;2023-05-16T02:49:25;100497.41;;;10.20;91.63
29433;BME280;16405;53.964;13.448;2023-05-16T02:51:51;100494.84;;;10.18;91.49
29433;BME280;16405;53.964;13.448;2023-05-16T02:54:17;100494.91;;;10.17;92.34
29433;BME280;16405;53.964;13.448;2023-05-16T02:56:43;100497.75;;;10.12;92.43
29433;BME280;16405;53.964;13.448;2023-05-16T02:59:10;100503.09;;;10.11;92.26
29433;BME280;16405;53.964;13.448;2023-05-16T03:01:36;100498.75;;;10.10;92.32
29433;BME280;16405;53.964;13.448;2023-05-16T03:04:02;100497.97;;;10.07;92.45
29433;BME280;16405;53.964;13.448;2023-05-16T03:06:28;100495.50;;;10.04;92.54
29433;BME280;16405;53.964;13.448;2023-05-16T03:08:55;100504.47;;;10.00;93.47
29433;BME280;16405;53.964;13.448;2023-05-16T03:11:21;100501.06;;;9.98;94.82
29433;BME280;16405;53.964;13.448;2023-05-16T03:13:49;100510.88;;;9.95;96.25
29433;BME280;16405;53.964;13.448;2023-05-16T03:16:15;100516.91;;;9.97;97.17
29433;BME280;16405;53.964;13.448;2023-05-16T03:18:42;100517.63;;;10.00;98.21
29433;BME280;16405;53.964;13.448;2023-05-16T03:21:08;100525.00;;;10.11;98.54
29433;BME280;16405;53.964;13.448;2023-05-16T03:23:34;100525.63;;;10.16;99.03
29433;BME280;16405;53.964;13.448;2023-05-16T03:25:59;100532.94;;;10.29;99.55
29433;BME280;16405;53.964;13.448;2023-05-16T03:28:26;100535.16;;;10.38;98.32
29433;BME280;16405;53.964;13.448;2023-05-16T03:30:52;100531.22;;;10.46;97.98
29433;BME280;16405;53.964;13.448;2023-05-16T03:33:18;100533.53;;;10.53;98.49
29433;BME280;16405;53.964;13.448;2023-05-16T03:35:44;100526.13;;;10.61;98.38
29433;BME280;16405;53.964;13.448;2023-05-16T03:38:10;100535.25;;;10.71;97.66
29433;BME280;16405;53.964;13.448;2023-05-16T03:40:36;100546.25;;;10.79;96.93
29433;BME280;16405;53.964;13.448;2023-05-16T03:43:02;100540.53;;;10.88;96.03
29433;BME280;16405;53.964;13.448;2023-05-16T03:45:29;100541.09;;;10.95;95.85
29433;BME280;16405;53.964;13.448;2023-05-16T03:47:56;100547.72;;;11.02;97.24
29433;BME280;16405;53.964;13.448;2023-05-16T03:50:22;100548.09;;;11.12;97.52
29433;BME280;16405;53.964;13.448;2023-05-16T03:52:48;100551.19;;;11.20;97.41
29433;BME280;16405;53.964;13.448;2023-05-16T03:55:14;100542.13;;;11.26;97.95
29433;BME280;16405;53.964;13.448;2023-05-16T03:57:42;100542.66;;;11.33;98.47
29433;BME280;16405;53.964;13.448;2023-05-16T04:00:09;100551.94;;;11.40;98.55
29433;BME280;16405;53.964;13.448;2023-05-16T04:02:38;100555.03;;;11.48;98.31
29433;BME280;16405;53.964;13.448;2023-05-16T04:05:09;100561.44;;;11.60;96.79
29433;BME280;16405;53.964;13.448;2023-05-16T04:07:36;100560.09;;;11.68;97.08
29433;BME280;16405;53.964;13.448;2023-05-16T04:10:03;100567.66;;;11.75;96.33
29433;BME280;16405;53.964;13.448;2023-05-16T04:12:29;100563.84;;;11.80;96.40
29433;BME280;16405;53.964;13.448;2023-05-16T04:14:55;100568.09;;;11.83;96.40
29433;BME280;16405;53.964;13.448;2023-05-16T04:17:21;100567.44;;;11.79;96.73
29433;BME280;16405;53.964;13.448;2023-05-16T04:19:47;100569.03;;;11.82;97.39
29433;BME280;16405;53.964;13.448;2023-05-16T04:22:12;100578.50;;;11.86;97.31
29433;BME280;16405;53.964;13.448;2023-05-16T04:24:38;100578.50;;;11.86;98.06
29433;BME280;16405;53.964;13.448;2023-05-16T04:27:05;100586.25;;;11.89;97.38
29433;BME280;16405;53.964;13.448;2023-05-16T04:29:35;100594.88;;;11.93;96.26
29433;BME280;16405;53.964;13.448;2023-05-16T04:32:00;100590.44;;;11.93;96.54
29433;BME280;16405;53.964;13.448;2023-05-16T04:34:27;100589.34;;;11.97;95.90
29433;BME280;16405;53.964;13.448;2023-05-16T04:36:53;100588.56;;;11.95;95.48
29433;BME280;16405;53.964;13.448;2023-05-16T04:39:20;100588.72;;;11.92;96.27
29433;BME280;16405;53.964;13.448;2023-05-16T04:41:45;100583.31;;;11.95;95.98
29433;BME280;16405;53.964;13.448;2023-05-16T04:44:11;100590.88;;;12.01;94.84
29433;BME280;16405;53.964;13.448;2023-05-16T04:46:37;100599.56;;;12.03;95.60
29433;BME280;16405;53.964;13.448;2023-05-16T04:49:03;100595.41;;;11.99;95.32
29433;BME280;16405;53.964;13.448;2023-05-16T04:51:29;100596.06;;;12.03;95.09
29433;BME280;16405;53.964;13.448;2023-05-16T04:53:56;100607.03;;;11.95;95.99
29433;BME280;16405;53.964;13.448;2023-05-16T04:56:21;100610.00;;;11.89;95.96
29433;BME280;16405;53.964;13.448;2023-05-16T04:58:47;100618.22;;;11.83;96.76
29433;BME280;16405;53.964;13.448;2023-05-16T05:01:13;100608.09;;;11.75;96.97
29433;BME280;16405;53.964;13.448;2023-05-16T05:03:38;100604.94;;;11.68;96.85
29433;BME280;16405;53.964;13.448;2023-05-16T05:06:04;100632.53;;;11.61;98.01
29433;BME280;16405;53.964;13.448;2023-05-16T05:08:30;100635.28;;;11.60;97.37
29433;BME280;16405;53.964;13.448;2023-05-16T05:10:56;100638.75;;;11.60;97.24
29433;BME280;16405;53.964;13.448;2023-05-16T05:13:22;100638.31;;;11.52;97.71
29433;BME280;16405;53.964;13.448;2023-05-16T05:15:48;100643.66;;;11.50;98.35
29433;BME280;16405;53.964;13.448;2023-05-16T05:18:17;100642.63;;;11.53;98.30
29433;BME280;16405;53.964;13.448;2023-05-16T05:20:43;100644.13;;;11.41;99.09
29433;BME280;16405;53.964;13.448;2023-05-16T05:23:09;100646.00;;;11.39;100.00
29433;BME280;16405;53.964;13.448;2023-05-16T05:25:35;100641.88;;;11.34;100.00
29433;BME280;16405;53.964;13.448;2023-05-16T05:28:01;100648.94;;;11.33;100.00
29433;BME280;16405;53.964;13.448;2023-05-16T05:30:28;100644.91;;;11.26;100.00
29433;BME280;16405;53.964;13.448;2023-05-16T05:32:54;100656.84;;;11.16;100.00
29433;BME280;16405;53.964;13.448;2023-05-16T05:35:20;100660.19;;;11.02;100.00
29433;BME280;16405;53.964;13.448;2023-05-16T05:37:46;100665.22;;;11.06;100.00
29433;BME280;16405;53.964;13.448;2023-05-16T05:40:12;100667.31;;;11.00;100.00
29433;BME280;16405;53.964;13.448;2023-05-16T05:42:38;100666.34;;;11.01;100.00
29433;BME280;16405;53.964;13.448;2023-05-16T05:45:04;100672.19;;;11.07;100.00
29433;BME280;16405;53.964;13.448;2023-05-16T05:47:30;100679.84;;;11.12;100.00
29433;BME280;16405;53.964;13.448;2023-05-16T05:49:56;100691.94;;;11.16;100.00
29433;BME280;16405;53.964;13.448;2023-05-16T05:52:22;100698.28;;;11.12;100.00
29433;BME280;16405;53.964;13.448;2023-05-16T05:54:48;100702.13;;;11.24;100.00
29433;BME280;16405;53.964;13.448;2023-05-16T05:57:14;100707.00;;;11.32;100.00
29433;BME280;16405;53.964;13.448;2023-05-16T05:59:40;100710.03;;;11.41;100.00
29433;BME280;16405;53.964;13.448;2023-05-16T06:02:06;100715.69;;;11.34;99.22
29433;BME280;16405;53.964;13.448;2023-05-16T06:04:32;100713.22;;;11.65;98.77
29433;BME280;16405;53.964;13.448;2023-05-16T06:06:58;100731.22;;;12.25;97.43
29433;BME280;16405;53.964;13.448;2023-05-16T06:09:24;100744.16;;;13.11;93.32
29433;BME280;16405;53.964;13.448;2023-05-16T06:11:49;100736.22;;;13.11;88.77
29433;BME280;16405;53.964;13.448;2023-05-16T06:14:15;100746.97;;;12.92;86.77
29433;BME280;16405;53.964;13.448;2023-05-16T06:16:41;100733.16;;;12.55;86.07
29433;BME280;16405;53.964;13.448;2023-05-16T06:19:07;100725.28;;;12.04;87.55
29433;BME280;16405;53.964;13.448;2023-05-16T06:21:34;100723.22;;;11.59;89.00
29433;BME280;16405;53.964;13.448;2023-05-16T06:24:00;100723.66;;;11.15;90.83
29433;BME280;16405;53.964;13.448;2023-05-16T06:26:25;100727.44;;;11.09;92.82
29433;BME280;16405;53.964;13.448;2023-05-16T06:28:51;100718.50;;;10.94;94.13
29433;BME280;16405;53.964;13.448;2023-05-16T06:31:17;100725.22;;;10.82;95.37
29433;BME280;16405;53.964;13.448;2023-05-16T06:33:43;100734.88;;;10.82;96.50
29433;BME280;16405;53.964;13.448;2023-05-16T06:36:09;100736.56;;;10.65;97.00
29433;BME280;16405;53.964;13.448;2023-05-16T06:38:37;100751.50;;;10.65;97.43
29433;BME280;16405;53.964;13.448;2023-05-16T06:41:03;100750.50;;;10.67;96.44
29433;BME280;16405;53.964;13.448;2023-05-16T06:43:28;100752.28;;;10.48;95.94
29433;BME280;16405;53.964;13.448;2023-05-16T06:45:54;100751.44;;;10.48;95.79
29433;BME280;16405;53.964;13.448;2023-05-16T06:48:20;100767.28;;;10.46;95.95
29433;BME280;16405;53.964;13.448;2023-05-16T06:50:48;100762.09;;;10.44;95.42
29433;BME280;16405;53.964;13.448;2023-05-16T06:53:14;100772.56;;;10.46;95.86
29433;BME280;16405;53.964;13.448;2023-05-16T06:55:40;100765.91;;;10.37;95.35
29433;BME280;16405;53.964;13.448;2023-05-16T06:58:05;100781.28;;;10.46;94.97
29433;BME280;16405;53.964;13.448;2023-05-16T07:00:31;100785.78;;;10.44;94.42
29433;BME280;16405;53.964;13.448;2023-05-16T07:02:57;100779.28;;;10.33;94.32
29433;BME280;16405;53.964;13.448;2023-05-16T07:05:22;100785.19;;;10.38;93.53
29433;BME280;16405;53.964;13.448;2023-05-16T07:07:48;100787.97;;;10.54;93.35
29433;BME280;16405;53.964;13.448;2023-05-16T07:10:14;100785.59;;;10.68;92.45
29433;BME280;16405;53.964;13.448;2023-05-16T07:12:41;100791.13;;;10.81;91.46
29433;BME280;16405;53.964;13.448;2023-05-16T07:15:08;100794.50;;;10.84;90.85
29433;BME280;16405;53.964;13.448;2023-05-16T07:17:34;100797.13;;;10.84;89.83
29433;BME280;16405;53.964;13.448;2023-05-16T07:20:00;100803.47;;;10.80;88.98
29433;BME280;16405;53.964;13.448;2023-05-16T07:22:25;100808.91;;;10.95;88.61
29433;BME280;16405;53.964;13.448;2023-05-16T07:24:51;100809.00;;;10.93;88.37
29433;BME280;16405;53.964;13.448;2023-05-16T07:27:21;100815.75;;;10.99;87.96
29433;BME280;16405;53.964;13.448;2023-05-16T07:29:47;100822.31;;;11.09;87.29
29433;BME280;16405;53.964;13.448;2023-05-16T07:32:13;100823.72;;;11.16;86.43
29433;BME280;16405;53.964;13.448;2023-05-16T07:34:39;100833.13;;;11.22;86.14
29433;BME280;16405;53.964;13.448;2023-05-16T07:37:05;100833.56;;;11.13;84.89
29433;BME280;16405;53.964;13.448;2023-05-16T07:39:38;100832.00;;;11.08;84.71
29433;BME280;16405;53.964;13.448;2023-05-16T07:42:06;100825.16;;;11.04;84.37
29433;BME280;16405;53.964;13.448;2023-05-16T07:44:33;100836.50;;;11.25;84.02
29433;BME280;16405;53.964;13.448;2023-05-16T07:46:59;100833.09;;;11.41;83.44
29433;BME280;16405;53.964;13.448;2023-05-16T07:49:25;100823.44;;;11.22;82.19
29433;BME280;16405;53.964;13.448;2023-05-16T07:51:51;100827.41;;;11.31;82.51
29433;BME280;16405;53.964;13.448;2023-05-16T07:54:16;100828.25;;;11.32;81.72
29433;BME280;16405;53.964;13.448;2023-05-16T07:56:42;100832.47;;;11.36;81.08
29433;BME280;16405;53.964;13.448;2023-05-16T07:59:08;100831.13;;;11.27;79.84
29433;BME280;16405;53.964;13.448;2023-05-16T08:01:35;100843.16;;;11.33;79.68
29433;BME280;16405;53.964;13.448;2023-05-16T08:04:01;100847.44;;;11.35;79.71
29433;BME280;16405;53.964;13.448;2023-05-16T08:06:27;100860.28;;;11.60;79.53
29433;BME280;16405;53.964;13.448;2023-05-16T08:08:54;100868.31;;;11.76;78.53
29433;BME280;16405;53.964;13.448;2023-05-16T08:11:21;100875.84;;;11.84;77.94
29433;BME280;16405;53.964;13.448;2023-05-16T08:13:49;100868.00;;;11.82;77.58
29433;BME280;16405;53.964;13.448;2023-05-16T08:16:15;100872.78;;;11.93;77.03
29433;BME280;16405;53.964;13.448;2023-05-16T08:18:41;100881.72;;;11.90;76.43
29433;BME280;16405;53.964;13.448;2023-05-16T08:21:07;100873.16;;;12.03;76.79
29433;BME280;16405;53.964;13.448;2023-05-16T08:23:38;100875.13;;;12.17;75.65
29433;BME280;16405;53.964;13.448;2023-05-16T08:26:03;100886.75;;;12.30;75.07
29433;BME280;16405;53.964;13.448;2023-05-16T08:28:29;100887.69;;;12.46;74.87
29433;BME280;16405;53.964;13.448;2023-05-16T08:30:55;100882.53;;;12.43;73.57
29433;BME280;16405;53.964;13.448;2023-05-16T08:33:21;100885.63;;;12.69;73.55
29433;BME280;16405;53.964;13.448;2023-05-16T08:35:47;100879.06;;;12.76;72.90
29433;BME280;16405;53.964;13.448;2023-05-16T08:38:14;100876.78;;;12.86;72.62
29433;BME280;16405;53.964;13.448;2023-05-16T08:40:41;100874.28;;;12.83;72.81
29433;BME280;16405;53.964;13.448;2023-05-16T08:43:07;100883.00;;;12.85;71.78
29433;BME280;16405;53.964;13.448;2023-05-16T08:45:33;100873.81;;;12.92;72.30
29433;BME280;16405;53.964;13.448;2023-05-16T08:48:00;100874.78;;;13.07;72.46
29433;BME280;16405;53.964;13.448;2023-05-16T08:50:31;100883.75;;;13.20;72.28
29433;BME280;16405;53.964;13.448;2023-05-16T08:53:04;100884.72;;;13.02;71.75
29433;BME280;16405;53.964;13.448;2023-05-16T08:55:32;100878.09;;;13.10;71.68
29433;BME280;16405;53.964;13.448;2023-05-16T08:57:59;100889.88;;;13.05;71.04
29433;BME280;16405;53.964;13.448;2023-05-16T09:00:26;100898.41;;;13.10;71.69
29433;BME280;16405;53.964;13.448;2023-05-16T09:02:52;100902.25;;;13.20;71.84
29433;BME280;16405;53.964;13.448;2023-05-16T09:05:23;100900.53;;;13.03;71.14
29433;BME280;16405;53.964;13.448;2023-05-16T09:07:50;100900.91;;;12.80;71.44
29433;BME280;16405;53.964;13.448;2023-05-16T09:10:18;100907.69;;;13.01;71.46
29433;BME280;16405;53.964;13.448;2023-05-16T09:12:44;100915.22;;;13.09;71.92
29433;BME280;16405;53.964;13.448;2023-05-16T09:15:11;100920.44;;;13.26;71.20
29433;BME280;16405;53.964;13.448;2023-05-16T09:17:45;100920.47;;;13.42;70.72
29433;BME280;16405;53.964;13.448;2023-05-16T09:20:17;100928.06;;;13.15;70.51
29433;BME280;16405;53.964;13.448;2023-05-16T09:23:01;100925.19;;;13.20;70.58
29433;BME280;16405;53.964;13.448;2023-05-16T09:25:32;100931.44;;;13.34;70.71
29433;BME280;16405;53.964;13.448;2023-05-16T09:28:01;100930.81;;;13.13;71.02
29433;BME280;16405;53.964;13.448;2023-05-16T09:30:33;100927.97;;;13.01;70.63
29433;BME280;16405;53.964;13.448;2023-05-16T09:33:02;100935.72;;;13.04;70.57
29433;BME280;16405;53.964;13.448;2023-05-16T09:35:37;100941.00;;;13.04;70.99
29433;BME280;16405;53.964;13.448;2023-05-16T09:38:04;100944.16;;;12.95;70.17
29433;BME280;16405;53.964;13.448;2023-05-16T09:40:33;100937.88;;;12.80;70.20
29433;BME280;16405;53.964;13.448;2023-05-16T09:43:06;100944.03;;;12.80;70.69
29433;BME280;16405;53.964;13.448;2023-05-16T09:45:35;100943.38;;;12.92;70.92
29433;BME280;16405;53.964;13.448;2023-05-16T09:48:11;100944.22;;;12.93;71.14
29433;BME280;16405;53.964;13.448;2023-05-16T09:50:45;100946.41;;;12.85;69.93
29433;BME280;16405;53.964;13.448;2023-05-16T09:53:12;100943.50;;;12.73;70.37
29433;BME280;16405;53.964;13.448;2023-05-16T09:55:44;100944.72;;;12.84;70.72
29433;BME280;16405;53.964;13.448;2023-05-16T09:58:10;100942.09;;;12.84;70.16
29433;BME280;16405;53.964;13.448;2023-05-16T10:00:40;100942.13;;;13.00;69.85
29433;BME280;16405;53.964;13.448;2023-05-16T10:03:09;100944.47;;;13.22;69.28
29433;BME280;16405;53.964;13.448;2023-05-16T10:05:39;100944.50;;;13.04;69.35
29433;BME280;16405;53.964;13.448;2023-05-16T10:08:07;100943.25;;;13.11;69.42
29433;BME280;16405;53.964;13.448;2023-05-16T10:10:35;100939.09;;;13.23;69.38
29433;BME280;16405;53.964;13.448;2023-05-16T10:13:05;100927.69;;;12.89;67.84
29433;BME280;16405;53.964;13.448;2023-05-16T10:15:35;100936.72;;;12.85;68.60
29433;BME280;16405;53.964;13.448;2023-05-16T10:18:03;100938.81;;;12.96;68.67
29433;BME280;16405;53.964;13.448;2023-05-16T10:20:32;100943.00;;;13.16;69.06
29433;BME280;16405;53.964;13.448;2023-05-16T10:23:01;100937.78;;;13.14;67.86
29433;BME280;16405;53.964;13.448;2023-05-16T10:25:35;100939.75;;;13.28;68.14
29433;BME280;16405;53.964;13.448;2023-05-16T10:28:07;100951.94;;;13.47;68.12
29433;BME280;16405;53.964;13.448;2023-05-16T10:30:44;100952.19;;;13.42;67.65
29433;BME280;16405;53.964;13.448;2023-05-16T10:33:17;100948.28;;;13.33;67.45
29433;BME280;16405;53.964;13.448;2023-05-16T10:35:45;100947.53;;;13.14;67.11
29433;BME280;16405;53.964;13.448;2023-05-16T10:38:17;100953.91;;;13.10;67.69
29433;BME280;16405;53.964;13.448;2023-05-16T10:40:47;100955.25;;;13.34;67.79
29433;BME280;16405;53.964;13.448;2023-05-16T10:43:31;100966.00;;;13.47;67.03
29433;BME280;16405;53.964;13.448;2023-05-16T10:46:09;100961.41;;;13.35;66.91
29433;BME280;16405;53.964;13.448;2023-05-16T10:48:42;100945.81;;;13.13;66.06
29433;BME280;16405;53.964;13.448;2023-05-16T10:51:37;100969.50;;;13.32;65.69
29433;BME280;16405;53.964;13.448;2023-05-16T10:54:11;100977.09;;;13.54;64.90
29433;BME280;16405;53.964;13.448;2023-05-16T10:56:39;100972.63;;;13.72;64.67
29433;BME280;16405;53.964;13.448;2023-05-16T10:59:38;100977.03;;;13.87;64.15
29433;BME280;16405;53.964;13.448;2023-05-16T11:02:31;100959.72;;;13.50;64.04
29433;BME280;16405;53.964;13.448;2023-05-16T11:05:04;100955.91;;;13.22;64.71
29433;BME280;16405;53.964;13.448;2023-05-16T11:07:38;100964.66;;;13.07;64.86
29433;BME280;16405;53.964;13.448;2023-05-16T11:10:16;100961.34;;;13.19;64.51
29433;BME280;16405;53.964;13.448;2023-05-16T11:12:54;100966.28;;;13.09;63.89
29433;BME280;16405;53.964;13.448;2023-05-16T11:15:31;100972.63;;;13.23;63.54
29433;BME280;16405;53.964;13.448;2023-05-16T11:18:13;100978.13;;;13.36;63.69
29433;BME280;16405;53.964;13.448;2023-05-16T11:20:46;100988.47;;;13.56;63.63
29433;BME280;16405;53.964;13.448;2023-05-16T11:23:24;100992.00;;;13.57;62.52
29433;BME280;16405;53.964;13.448;2023-05-16T11:25:58;101006.31;;;13.68;62.75
29433;BME280;16405;53.964;13.448;2023-05-16T11:28:26;101013.50;;;13.82;61.86
29433;BME280;16405;53.964;13.448;2023-05-16T11:30:58;101009.41;;;13.77;61.62
29433;BME280;16405;53.964;13.448;2023-05-16T11:33:33;101011.09;;;14.09;61.56
29433;BME280;16405;53.964;13.448;2023-05-16T11:36:11;101023.47;;;14.25;59.60
29433;BME280;16405;53.964;13.448;2023-05-16T11:38:43;101032.31;;;14.40;58.75
29433;BME280;16405;53.964;13.448;2023-05-16T11:41:15;101045.47;;;14.57;58.50
29433;BME280;16405;53.964;13.448;2023-05-16T11:43:44;101042.81;;;14.87;59.02
29433;BME280;16405;53.964;13.448;2023-05-16T11:46:14;101046.34;;;15.02;58.19
29433;BME280;16405;53.964;13.448;2023-05-16T11:48:44;101048.84;;;15.34;57.95
29433;BME280;16405;53.964;13.448;2023-05-16T11:51:18;101055.28;;;15.30;56.48
29433;BME280;16405;53.964;13.448;2023-05-16T11:53:48;101049.06;;;14.86;56.26
29433;BME280;16405;53.964;13.448;2023-05-16T11:56:19;101047.06;;;14.75;56.46
29433;BME280;16405;53.964;13.448;2023-05-16T11:58:47;101051.28;;;15.08;57.30
29433;BME280;16405;53.964;13.448;2023-05-16T12:01:13;101066.88;;;15.57;57.03
29433;BME280;16405;53.964;13.448;2023-05-16T12:03:43;101064.81;;;16.04;56.46
29433;BME280;16405;53.964;13.448;2023-05-16T12:06:14;101074.22;;;16.10;54.83
29433;BME280;16405;53.964;13.448;2023-05-16T12:08:52;101061.09;;;15.79;55.38
29433;BME280;16405;53.964;13.448;2023-05-16T12:11:18;101073.50;;;15.36;54.77
29433;BME280;16405;53.964;13.448;2023-05-16T12:13:45;101071.00;;;15.33;55.49
29433;BME280;16405;53.964;13.448;2023-05-16T12:16:12;101073.56;;;15.63;55.71
29433;BME280;16405;53.964;13.448;2023-05-16T12:18:38;101071.97;;;15.46;54.67
29433;BME280;16405;53.964;13.448;2023-05-16T12:21:05;101062.13;;;15.63;55.16
29433;BME280;16405;53.964;13.448;2023-05-16T12:23:34;101068.44;;;15.17;54.29
29433;BME280;16405;53.964;13.448;2023-05-16T12:26:02;101068.06;;;15.37;55.01
29433;BME280;16405;53.964;13.448;2023-05-16T12:28:34;101066.94;;;15.56;55.28
29433;BME280;16405;53.964;13.448;2023-05-16T12:31:01;101062.91;;;15.79;54.90
29433;BME280;16405;53.964;13.448;2023-05-16T12:33:27;101057.84;;;15.89;54.31
29433;BME280;16405;53.964;13.448;2023-05-16T12:35:53;101065.69;;;16.05;54.52
29433;BME280;16405;53.964;13.448;2023-05-16T12:38:20;101069.97;;;16.34;54.37
29433;BME280;16405;53.964;13.448;2023-05-16T12:40:46;101077.31;;;16.71;53.53
29433;BME280;16405;53.964;13.448;2023-05-16T12:43:13;101091.06;;;17.30;52.99
29433;BME280;16405;53.964;13.448;2023-05-16T12:45:40;101094.56;;;17.82;51.09
29433;BME280;16405;53.964;13.448;2023-05-16T12:48:15;101103.91;;;18.00;49.64
29433;BME280;16405;53.964;13.448;2023-05-16T12:50:41;101090.94;;;17.70;51.16
29433;BME280;16405;53.964;13.448;2023-05-16T12:53:14;101089.25;;;17.31;50.58
29433;BME280;16405;53.964;13.448;2023-05-16T12:55:41;101082.13;;;16.78;51.04
29433;BME280;16405;53.964;13.448;2023-05-16T12:58:09;101080.94;;;17.10;51.37
29433;BME280;16405;53.964;13.448;2023-05-16T13:00:36;101088.19;;;17.33;51.35